Time;durP1;ratioP1;P1;durP2;ratioP2;P2;SDS_P1;SDS_P2;PMS_P1;PMS_P2;Temp;Humidity;BMP_temperature;BMP_pressure;BME280_temperature;BME280_humidity;BME280_pressure;Samples;Min_cycle;Max_cycle;Signal;HPM_P1;HPM_P2
2022/10/24 00:01:57;;;;;;;19.3;25.8;;;;;;;8.1;89.2;98840;;;;
2022/10/24 00:12:57;;;;;;;19.4;24.5;;;;;;;8.2;89.6;98830;;;;
2022/10/24 00:22:57;;;;;;;19.4;24.5;;;;;;;8.1;89.9;98810;;;;
2022/10/24 00:32:57;;;;;;;19.4;24.5;;;;;;;8.1;89.8;98830;;;;
2022/10/24 00:43:57;;;;;;;13.4;17.3;;;;;;;8.1;89.7;98810;;;;
2022/10/24 00:54:57;;;;;;;13.4;17.3;;;;;;;8.2;89.9;98820;;;;
2022/10/24 01:04:57;;;;;;;13.4;17.3;;;;;;;8.2;90;98820;;;;
2022/10/24 01:14:57;;;;;;;14.8;20.2;;;;;;;8.3;89.9;98820;;;;
2022/10/24 01:24:57;;;;;;;14.8;20.2;;;;;;;8.2;90.1;98810;;;;
2022/10/24 01:35:57;;;;;;;14.8;20.2;;;;;;;8.3;90;98800;;;;
2022/10/24 01:45:57;;;;;;;13.8;19;;;;;;;8.3;90.1;98790;;;;
2022/10/24 01:55:57;;;;;;;13.8;19;;;;;;;8.4;90.2;98780;;;;
2022/10/24 02:06:57;;;;;;;13.8;19;;;;;;;8.3;90.2;98770;;;;
2022/10/24 02:16:57;;;;;;;13.4;17.8;;;;;;;8.4;90.2;98800;;;;
2022/10/24 02:27:57;;;;;;;13.4;17.8;;;;;;;8.2;89.7;98770;;;;
2022/10/24 02:37:57;;;;;;;13.4;17.8;;;;;;;8.3;90.5;98770;;;;
2022/10/24 02:48:57;;;;;;;15.9;19.4;;;;;;;8.3;90.6;98780;;;;
2022/10/24 02:59:57;;;;;;;15.9;19.4;;;;;;;8.4;90.3;98770;;;;
2022/10/24 03:10:57;;;;;;;12.9;17.4;;;;;;;8.4;90.2;98770;;;;
2022/10/24 03:21:57;;;;;;;12.9;17.4;;;;;;;8.4;89.9;98770;;;;
2022/10/24 03:31:56;;;;;;;12.9;17.4;;;;;;;8.3;89.5;98760;;;;
2022/10/24 03:42:57;;;;;;;12.3;17;;;;;;;8.4;90;98740;;;;
2022/10/24 03:52:57;;;;;;;12.3;17;;;;;;;8.5;90;98740;;;;
2022/10/24 04:02:57;;;;;;;12.3;17;;;;;;;8.4;90;98760;;;;
2022/10/24 04:13:57;;;;;;;14.3;17.5;;;;;;;8.6;89.9;98760;;;;
2022/10/24 04:24:56;;;;;;;14.3;17.5;;;;;;;8.6;89.9;98750;;;;
2022/10/24 04:34:56;;;;;;;14.3;17.5;;;;;;;8.8;90.2;98760;;;;
2022/10/24 04:45:56;;;;;;;18.8;23.2;;;;;;;9;90.2;98770;;;;
2022/10/24 04:56:56;;;;;;;18.8;23.2;;;;;;;9.2;90.1;98770;;;;
2022/10/24 05:06:56;;;;;;;18.8;23.2;;;;;;;9.2;89.9;98750;;;;
2022/10/24 05:17:56;;;;;;;16.4;19.7;;;;;;;9.3;89.7;98740;;;;
2022/10/24 05:28:56;;;;;;;16.4;19.7;;;;;;;9.2;89.2;98750;;;;
2022/10/24 05:38:56;;;;;;;16.4;19.7;;;;;;;9.3;89.1;98760;;;;
2022/10/24 05:49:56;;;;;;;15.8;20.7;;;;;;;9.4;89.1;98760;;;;
2022/10/24 05:59:56;;;;;;;15.8;20.7;;;;;;;9.4;88.8;98750;;;;
2022/10/24 06:10:56;;;;;;;14.5;19.2;;;;;;;9.6;88.8;98760;;;;
2022/10/24 06:21:56;;;;;;;14.5;19.2;;;;;;;9.8;88.6;98770;;;;
2022/10/24 06:31:56;;;;;;;14.5;19.2;;;;;;;9.9;88.7;98780;;;;
2022/10/24 06:42:56;;;;;;;16.1;21.1;;;;;;;10.2;88.4;98810;;;;
2022/10/24 06:52:56;;;;;;;16.1;21.1;;;;;;;10.4;88.1;98790;;;;
2022/10/24 07:02:57;;;;;;;16.1;21.1;;;;;;;10.8;88.2;98810;;;;
2022/10/24 07:12:56;;;;;;;19.5;34;;;;;;;11.5;88.7;98810;;;;
2022/10/24 07:23:56;;;;;;;19.5;34;;;;;;;11.9;88.5;98800;;;;
2022/10/24 07:33:56;;;;;;;19.5;34;;;;;;;12.2;88;98800;;;;
2022/10/24 07:44:56;;;;;;;14.2;19.7;;;;;;;12.4;87.4;98790;;;;
2022/10/24 07:55:56;;;;;;;14.2;19.7;;;;;;;12.9;87.6;98770;;;;
2022/10/24 08:05:56;;;;;;;14.2;19.7;;;;;;;13.5;86.9;98770;;;;
2022/10/24 08:16:56;;;;;;;13.8;16.9;;;;;;;14;84.8;98790;;;;
2022/10/24 08:27:56;;;;;;;13.8;16.9;;;;;;;14.4;83.5;98780;;;;
2022/10/24 08:37:57;;;;;;;13.8;16.9;;;;;;;14.8;82.6;98760;;;;
2022/10/24 08:48:56;;;;;;;21;28;;;;;;;15.4;81.2;98760;;;;
2022/10/24 08:58:56;;;;;;;21;28;;;;;;;16.1;81;98710;;;;
2022/10/24 09:08:57;;;;;;;21;28;;;;;;;17.2;80.6;98730;;;;
2022/10/24 09:18:56;;;;;;;16.9;19.4;;;;;;;17.9;75.7;98710;;;;
2022/10/24 09:29:56;;;;;;;16.9;19.4;;;;;;;18.5;75.4;98700;;;;
2022/10/24 09:40:56;;;;;;;13.8;19.2;;;;;;;19.3;75.2;98680;;;;
2022/10/24 09:50:56;;;;;;;13.8;19.2;;;;;;;19.7;72.5;98710;;;;
2022/10/24 10:01:56;;;;;;;13.8;19.2;;;;;;;19.8;71.6;98700;;;;
2022/10/24 10:11:56;;;;;;;12.4;17.3;;;;;;;19.9;70.4;98700;;;;
2022/10/24 10:22:56;;;;;;;12.4;17.3;;;;;;;19.9;70.7;98690;;;;
2022/10/24 10:32:56;;;;;;;12.4;17.3;;;;;;;19.9;70.5;98690;;;;
2022/10/24 10:43:56;;;;;;;10;13.8;;;;;;;19.7;71;98700;;;;
2022/10/24 10:53:56;;;;;;;10;13.8;;;;;;;19.9;72.3;98690;;;;
2022/10/24 11:04:56;;;;;;;10;13.8;;;;;;;20.1;71;98710;;;;
2022/10/24 11:15:56;;;;;;;11;15;;;;;;;20.3;70.9;98690;;;;
2022/10/24 11:26:56;;;;;;;11;15;;;;;;;20.7;70.1;98700;;;;
2022/10/24 11:37:56;;;;;;;11;15;;;;;;;20.7;68.8;98700;;;;
2022/10/24 11:47:56;;;;;;;12;16.7;;;;;;;20.6;69;98700;;;;
2022/10/24 11:58:56;;;;;;;12;16.7;;;;;;;21;68.6;98700;;;;
2022/10/24 12:09:56;;;;;;;12;16.7;;;;;;;21.2;68;98690;;;;
2022/10/24 12:19:56;;;;;;;10.3;16.5;;;;;;;21.1;65.8;98680;;;;
2022/10/24 12:30:56;;;;;;;10.3;16.5;;;;;;;20.9;66;98670;;;;
2022/10/24 12:40:56;;;;;;;6.9;13.5;;;;;;;21;66.9;98660;;;;
2022/10/24 12:50:56;;;;;;;6.9;13.5;;;;;;;21.1;65.4;98640;;;;
2022/10/24 13:00:56;;;;;;;6.9;13.5;;;;;;;21.1;64.9;98630;;;;
2022/10/24 13:11:56;;;;;;;6.5;13.2;;;;;;;20.8;66.6;98620;;;;
2022/10/24 13:22:56;;;;;;;6.5;13.2;;;;;;;20.5;67.1;98630;;;;
2022/10/24 13:32:56;;;;;;;6.5;13.2;;;;;;;20.4;67.7;98640;;;;
2022/10/24 13:43:56;;;;;;;7.3;14.8;;;;;;;20.4;69;98640;;;;
2022/10/24 13:53:56;;;;;;;7.3;14.8;;;;;;;20.3;66.2;98640;;;;
2022/10/24 14:04:56;;;;;;;7.3;14.8;;;;;;;20.3;64.8;98640;;;;
2022/10/24 14:14:57;;;;;;;5.1;11.6;;;;;;;20.2;64.7;98640;;;;
2022/10/24 14:25:56;;;;;;;5.1;11.6;;;;;;;19.9;65.7;98630;;;;
2022/10/24 14:35:56;;;;;;;5.1;11.6;;;;;;;19.6;66.8;98640;;;;
2022/10/24 14:46:56;;;;;;;3.7;7.5;;;;;;;19.3;67.9;98650;;;;
2022/10/24 14:56:56;;;;;;;3.7;7.5;;;;;;;19;69.1;98650;;;;
2022/10/24 15:06:56;;;;;;;3.7;7.5;;;;;;;18.7;70.2;98670;;;;
2022/10/24 15:17:56;;;;;;;6.8;17.7;;;;;;;18.1;71.5;98670;;;;
2022/10/24 15:28:56;;;;;;;6.8;17.7;;;;;;;17.4;73;98670;;;;
2022/10/24 15:39:56;;;;;;;6.8;17.7;;;;;;;16.8;74.6;98670;;;;
2022/10/24 15:49:56;;;;;;;10.6;20.4;;;;;;;16.4;75.9;98680;;;;
2022/10/24 15:59:56;;;;;;;10.6;20.4;;;;;;;16;77;98670;;;;
2022/10/24 16:10:56;;;;;;;11.2;16.9;;;;;;;15.6;78.4;98670;;;;
2022/10/24 16:20:56;;;;;;;11.2;16.9;;;;;;;15.4;79.7;98680;;;;
2022/10/24 16:31:56;;;;;;;11.2;16.9;;;;;;;15.5;82.4;98680;;;;
2022/10/24 16:42:56;;;;;;;12.6;18.8;;;;;;;15.6;83.2;98690;;;;
2022/10/24 16:52:56;;;;;;;12.6;18.8;;;;;;;15.5;83.4;98700;;;;
2022/10/24 17:02:56;;;;;;;12.6;18.8;;;;;;;15.6;83.9;98700;;;;
2022/10/24 17:12:56;;;;;;;17.3;23.5;;;;;;;15.6;83.5;98690;;;;
2022/10/24 17:22:56;;;;;;;17.3;23.5;;;;;;;15.6;82.6;98680;;;;
2022/10/24 17:32:56;;;;;;;17.3;23.5;;;;;;;15.7;81.6;98680;;;;
2022/10/24 17:42:56;;;;;;;9.9;16.4;;;;;;;15.6;81.3;98680;;;;
2022/10/24 17:53:56;;;;;;;9.9;16.4;;;;;;;15.5;81.5;98680;;;;
2022/10/24 18:03:56;;;;;;;9.9;16.4;;;;;;;15.6;81.1;98660;;;;
2022/10/24 18:14:56;;;;;;;8.5;11.9;;;;;;;15.5;80.9;98660;;;;
2022/10/24 18:24:56;;;;;;;8.5;11.9;;;;;;;15.4;80.8;98660;;;;
2022/10/24 18:35:56;;;;;;;8.5;11.9;;;;;;;15.4;80.8;98660;;;;
2022/10/24 18:45:56;;;;;;;8.6;14.3;;;;;;;15.2;80.6;98650;;;;
2022/10/24 18:55:56;;;;;;;8.6;14.3;;;;;;;15.1;80.3;98650;;;;
2022/10/24 19:06:56;;;;;;;8.6;14.3;;;;;;;15;80.6;98640;;;;
2022/10/24 19:16:58;;;;;;;9.8;16.3;;;;;;;14.9;80.9;98620;;;;
2022/10/24 19:27:56;;;;;;;9.8;16.3;;;;;;;14.6;81.1;98630;;;;
2022/10/24 19:37:56;;;;;;;9.8;16.3;;;;;;;14.4;81.7;98640;;;;
2022/10/24 19:48:56;;;;;;;37.9;50;;;;;;;14.4;83;98660;;;;
2022/10/24 19:58:56;;;;;;;37.9;50;;;;;;;14.2;84;98660;;;;
2022/10/24 20:09:56;;;;;;;37.9;50;;;;;;;14.3;83.8;98650;;;;
2022/10/24 20:19:56;;;;;;;22.4;30.4;;;;;;;14.5;84.4;98680;;;;
2022/10/24 20:30:56;;;;;;;22.4;30.4;;;;;;;14.6;84.3;98670;;;;
2022/10/24 20:40:56;;;;;;;22.7;30.8;;;;;;;14.6;84.4;98680;;;;
2022/10/24 20:50:56;;;;;;;22.7;30.8;;;;;;;14.7;84.5;98680;;;;
2022/10/24 21:00:56;;;;;;;22.7;30.8;;;;;;;14.7;84.8;98680;;;;
2022/10/24 21:11:56;;;;;;;25.3;31.9;;;;;;;14.8;84.6;98690;;;;
2022/10/24 21:21:56;;;;;;;25.3;31.9;;;;;;;14.8;85;98690;;;;
2022/10/24 21:32:56;;;;;;;25.3;31.9;;;;;;;14.8;85.7;98700;;;;
2022/10/24 21:43:56;;;;;;;22.5;26.8;;;;;;;14.9;85.9;98700;;;;
2022/10/24 21:54:56;;;;;;;22.5;26.8;;;;;;;14.9;86.3;98690;;;;
2022/10/24 22:04:56;;;;;;;22.5;26.8;;;;;;;14.9;86.5;98700;;;;
2022/10/24 22:14:56;;;;;;;28.5;37.1;;;;;;;14.9;86.8;98700;;;;
2022/10/24 22:25:56;;;;;;;28.5;37.1;;;;;;;14.8;87.8;98720;;;;
2022/10/24 22:35:56;;;;;;;28.5;37.1;;;;;;;14.7;88.3;98710;;;;
2022/10/24 22:46:56;;;;;;;24.3;30.8;;;;;;;14.8;88.2;98720;;;;
2022/10/24 22:57:56;;;;;;;24.3;30.8;;;;;;;14.9;88.2;98710;;;;
2022/10/24 23:08:56;;;;;;;24.3;30.8;;;;;;;14.9;88.1;98720;;;;
2022/10/24 23:18:56;;;;;;;22.8;26.3;;;;;;;14.8;88.3;98720;;;;
2022/10/24 23:29:56;;;;;;;22.8;26.3;;;;;;;14.8;88.8;98710;;;;
2022/10/24 23:40:56;;;;;;;19.3;24.2;;;;;;;14.8;88.9;98720;;;;
2022/10/24 23:50:56;;;;;;;19.3;24.2;;;;;;;14.8;89.2;98700;;;;
